sensor_id;sensor_type;location;lat;lon;timestamp;P1;durP1;ratioP1;P2;durP2;ratioP2
74900;SDS011;63461;51.416;6.758;2023-04-03T00:01:07;9.53;;;3.83;;
74900;SDS011;63461;51.416;6.758;2023-04-03T00:03:34;9.87;;;4.00;;
74900;SDS011;63461;51.416;6.758;2023-04-03T00:06:08;6.53;;;4.03;;
74900;SDS011;63461;51.416;6.758;2023-04-03T00:08:36;10.43;;;4.10;;
74900;SDS011;63461;51.416;6.758;2023-04-03T00:11:03;11.03;;;4.70;;
74900;SDS011;63461;51.416;6.758;2023-04-03T00:13:30;9.40;;;3.80;;
74900;SDS011;63461;51.416;6.758;2023-04-03T00:15:57;11.20;;;4.00;;
74900;SDS011;63461;51.416;6.758;2023-04-03T00:18:26;10.17;;;4.30;;
74900;SDS011;63461;51.416;6.758;2023-04-03T00:21:15;9.10;;;3.73;;
74900;SDS011;63461;51.416;6.758;2023-04-03T00:23:41;7.97;;;3.90;;
74900;SDS011;63461;51.416;6.758;2023-04-03T00:26:13;10.50;;;4.20;;
74900;SDS011;63461;51.416;6.758;2023-04-03T00:28:51;9.70;;;4.00;;
74900;SDS011;63461;51.416;6.758;2023-04-03T00:31:17;9.70;;;4.10;;
74900;SDS011;63461;51.416;6.758;2023-04-03T00:33:43;11.60;;;4.77;;
74900;SDS011;63461;51.416;6.758;2023-04-03T00:36:16;9.10;;;4.40;;
74900;SDS011;63461;51.416;6.758;2023-04-03T00:38:42;11.10;;;4.40;;
74900;SDS011;63461;51.416;6.758;2023-04-03T00:41:11;10.23;;;5.00;;
74900;SDS011;63461;51.416;6.758;2023-04-03T00:43:37;10.93;;;4.30;;
74900;SDS011;63461;51.416;6.758;2023-04-03T00:46:03;10.17;;;4.43;;
74900;SDS011;63461;51.416;6.758;2023-04-03T00:48:48;9.57;;;4.33;;
74900;SDS011;63461;51.416;6.758;2023-04-03T00:51:22;11.63;;;4.87;;
74900;SDS011;63461;51.416;6.758;2023-04-03T00:53:59;9.67;;;4.17;;
74900;SDS011;63461;51.416;6.758;2023-04-03T00:56:28;9.07;;;4.33;;
74900;SDS011;63461;51.416;6.758;2023-04-03T00:59:02;10.70;;;4.60;;
74900;SDS011;63461;51.416;6.758;2023-04-03T01:01:31;10.17;;;4.50;;
74900;SDS011;63461;51.416;6.758;2023-04-03T01:03:58;11.47;;;4.80;;
74900;SDS011;63461;51.416;6.758;2023-04-03T01:06:32;10.80;;;4.80;;
74900;SDS011;63461;51.416;6.758;2023-04-03T01:10:05;11.47;;;5.03;;
74900;SDS011;63461;51.416;6.758;2023-04-03T01:13:16;9.37;;;4.63;;
74900;SDS011;63461;51.416;6.758;2023-04-03T01:15:50;11.00;;;5.30;;
74900;SDS011;63461;51.416;6.758;2023-04-03T01:18:16;11.57;;;4.87;;
74900;SDS011;63461;51.416;6.758;2023-04-03T01:25:47;11.20;;;5.27;;
74900;SDS011;63461;51.416;6.758;2023-04-03T01:28:18;11.40;;;5.13;;
74900;SDS011;63461;51.416;6.758;2023-04-03T01:31:56;14.13;;;5.57;;
74900;SDS011;63461;51.416;6.758;2023-04-03T01:35:29;11.80;;;6.20;;
74900;SDS011;63461;51.416;6.758;2023-04-03T01:38:45;11.07;;;5.43;;
74900;SDS011;63461;51.416;6.758;2023-04-03T01:41:33;13.03;;;5.00;;
74900;SDS011;63461;51.416;6.758;2023-04-03T01:44:22;8.73;;;5.20;;
74900;SDS011;63461;51.416;6.758;2023-04-03T01:47:57;16.07;;;5.17;;
74900;SDS011;63461;51.416;6.758;2023-04-03T01:50:36;14.90;;;6.00;;
74900;SDS011;63461;51.416;6.758;2023-04-03T01:53:16;12.93;;;6.00;;
74900;SDS011;63461;51.416;6.758;2023-04-03T01:55:48;16.70;;;5.40;;
74900;SDS011;63461;51.416;6.758;2023-04-03T01:58:16;12.10;;;5.67;;
74900;SDS011;63461;51.416;6.758;2023-04-03T02:01:04;16.33;;;5.77;;
74900;SDS011;63461;51.416;6.758;2023-04-03T02:03:33;12.77;;;5.90;;
74900;SDS011;63461;51.416;6.758;2023-04-03T02:06:02;14.07;;;5.30;;
74900;SDS011;63461;51.416;6.758;2023-04-03T02:08:35;12.43;;;6.10;;
74900;SDS011;63461;51.416;6.758;2023-04-03T02:11:16;13.43;;;5.50;;
74900;SDS011;63461;51.416;6.758;2023-04-03T02:13:42;9.77;;;5.43;;
74900;SDS011;63461;51.416;6.758;2023-04-03T02:16:08;10.30;;;5.20;;
74900;SDS011;63461;51.416;6.758;2023-04-03T02:18:36;12.50;;;5.30;;
74900;SDS011;63461;51.416;6.758;2023-04-03T02:21:02;9.00;;;4.80;;
74900;SDS011;63461;51.416;6.758;2023-04-03T02:23:28;8.77;;;4.90;;
74900;SDS011;63461;51.416;6.758;2023-04-03T02:26:01;10.37;;;4.70;;
74900;SDS011;63461;51.416;6.758;2023-04-03T02:31:11;10.20;;;4.70;;
74900;SDS011;63461;51.416;6.758;2023-04-03T02:34:03;9.07;;;3.97;;
74900;SDS011;63461;51.416;6.758;2023-04-03T02:36:29;8.53;;;4.50;;
74900;SDS011;63461;51.416;6.758;2023-04-03T02:39:22;11.23;;;4.50;;
74900;SDS011;63461;51.416;6.758;2023-04-03T02:41:51;8.80;;;4.27;;
74900;SDS011;63461;51.416;6.758;2023-04-03T02:44:35;8.63;;;4.03;;
74900;SDS011;63461;51.416;6.758;2023-04-03T02:47:01;9.00;;;3.77;;
74900;SDS011;63461;51.416;6.758;2023-04-03T02:49:28;10.57;;;4.03;;
74900;SDS011;63461;51.416;6.758;2023-04-03T02:51:53;8.53;;;3.60;;
74900;SDS011;63461;51.416;6.758;2023-04-03T02:54:19;6.90;;;3.57;;
74900;SDS011;63461;51.416;6.758;2023-04-03T02:56:50;7.90;;;3.20;;
74900;SDS011;63461;51.416;6.758;2023-04-03T02:59:16;13.77;;;4.00;;
74900;SDS011;63461;51.416;6.758;2023-04-03T03:01:42;8.10;;;3.30;;
74900;SDS011;63461;51.416;6.758;2023-04-03T03:04:08;9.40;;;3.80;;
74900;SDS011;63461;51.416;6.758;2023-04-03T03:06:34;8.77;;;3.33;;
74900;SDS011;63461;51.416;6.758;2023-04-03T03:09:00;10.13;;;3.60;;
74900;SDS011;63461;51.416;6.758;2023-04-03T03:11:26;10.87;;;3.40;;
74900;SDS011;63461;51.416;6.758;2023-04-03T03:13:52;11.40;;;3.43;;
74900;SDS011;63461;51.416;6.758;2023-04-03T03:16:17;8.03;;;3.50;;
74900;SDS011;63461;51.416;6.758;2023-04-03T03:18:43;5.13;;;2.87;;
74900;SDS011;63461;51.416;6.758;2023-04-03T03:21:14;5.73;;;2.60;;
74900;SDS011;63461;51.416;6.758;2023-04-03T03:23:40;8.30;;;3.07;;
74900;SDS011;63461;51.416;6.758;2023-04-03T03:26:11;5.87;;;2.70;;
74900;SDS011;63461;51.416;6.758;2023-04-03T03:28:38;7.53;;;3.20;;
74900;SDS011;63461;51.416;6.758;2023-04-03T03:31:07;5.57;;;2.90;;
74900;SDS011;63461;51.416;6.758;2023-04-03T03:33:36;7.80;;;2.73;;
74900;SDS011;63461;51.416;6.758;2023-04-03T03:38:29;9.67;;;2.90;;
74900;SDS011;63461;51.416;6.758;2023-04-03T03:40:57;5.77;;;2.73;;
74900;SDS011;63461;51.416;6.758;2023-04-03T03:43:23;8.53;;;2.80;;
74900;SDS011;63461;51.416;6.758;2023-04-03T03:45:51;8.77;;;2.67;;
74900;SDS011;63461;51.416;6.758;2023-04-03T03:48:18;4.83;;;2.53;;
74900;SDS011;63461;51.416;6.758;2023-04-03T03:50:44;5.13;;;2.50;;
74900;SDS011;63461;51.416;6.758;2023-04-03T03:53:11;12.37;;;3.50;;
74900;SDS011;63461;51.416;6.758;2023-04-03T03:55:37;5.50;;;2.47;;
74900;SDS011;63461;51.416;6.758;2023-04-03T03:58:03;7.00;;;2.47;;
74900;SDS011;63461;51.416;6.758;2023-04-03T04:00:30;6.53;;;3.00;;
74900;SDS011;63461;51.416;6.758;2023-04-03T04:02:56;6.53;;;2.60;;
74900;SDS011;63461;51.416;6.758;2023-04-03T04:05:23;4.80;;;2.10;;
74900;SDS011;63461;51.416;6.758;2023-04-03T04:07:51;9.10;;;2.13;;
74900;SDS011;63461;51.416;6.758;2023-04-03T04:10:17;6.63;;;2.40;;
74900;SDS011;63461;51.416;6.758;2023-04-03T04:12:44;6.00;;;2.00;;
74900;SDS011;63461;51.416;6.758;2023-04-03T04:15:10;9.60;;;2.70;;
74900;SDS011;63461;51.416;6.758;2023-04-03T04:17:37;6.80;;;2.07;;
74900;SDS011;63461;51.416;6.758;2023-04-03T04:20:06;5.90;;;2.13;;
74900;SDS011;63461;51.416;6.758;2023-04-03T04:22:32;5.07;;;1.93;;
74900;SDS011;63461;51.416;6.758;2023-04-03T04:24:58;6.70;;;2.13;;
74900;SDS011;63461;51.416;6.758;2023-04-03T04:27:25;9.07;;;1.97;;
74900;SDS011;63461;51.416;6.758;2023-04-03T04:29:50;6.83;;;2.10;;
74900;SDS011;63461;51.416;6.758;2023-04-03T04:32:17;5.17;;;2.00;;
74900;SDS011;63461;51.416;6.758;2023-04-03T04:34:43;7.47;;;2.77;;
74900;SDS011;63461;51.416;6.758;2023-04-03T04:37:10;9.23;;;1.97;;
74900;SDS011;63461;51.416;6.758;2023-04-03T04:39:38;6.67;;;2.20;;
74900;SDS011;63461;51.416;6.758;2023-04-03T04:42:04;7.28;;;2.40;;
74900;SDS011;63461;51.416;6.758;2023-04-03T04:44:33;7.07;;;2.43;;
74900;SDS011;63461;51.416;6.758;2023-04-03T04:49:44;5.80;;;1.70;;
74900;SDS011;63461;51.416;6.758;2023-04-03T04:52:16;7.30;;;2.13;;
74900;SDS011;63461;51.416;6.758;2023-04-03T04:54:57;12.37;;;2.30;;
74900;SDS011;63461;51.416;6.758;2023-04-03T04:57:57;5.40;;;1.90;;
74900;SDS011;63461;51.416;6.758;2023-04-03T05:00:23;13.60;;;2.10;;
74900;SDS011;63461;51.416;6.758;2023-04-03T05:02:49;6.67;;;1.70;;
74900;SDS011;63461;51.416;6.758;2023-04-03T05:05:17;9.70;;;1.80;;
74900;SDS011;63461;51.416;6.758;2023-04-03T05:07:43;7.17;;;2.03;;
74900;SDS011;63461;51.416;6.758;2023-04-03T05:10:09;8.10;;;1.77;;
74900;SDS011;63461;51.416;6.758;2023-04-03T05:12:35;7.47;;;1.90;;
74900;SDS011;63461;51.416;6.758;2023-04-03T05:15:03;4.37;;;2.07;;
74900;SDS011;63461;51.416;6.758;2023-04-03T05:40:50;5.13;;;2.10;;
74900;SDS011;63461;51.416;6.758;2023-04-03T05:43:32;6.47;;;2.00;;
74900;SDS011;63461;51.416;6.758;2023-04-03T05:46:11;6.33;;;1.83;;
74900;SDS011;63461;51.416;6.758;2023-04-03T05:48:54;7.83;;;2.07;;
74900;SDS011;63461;51.416;6.758;2023-04-03T05:51:54;6.13;;;2.37;;
74900;SDS011;63461;51.416;6.758;2023-04-03T05:54:53;4.93;;;1.93;;
74900;SDS011;63461;51.416;6.758;2023-04-03T05:57:30;6.13;;;2.20;;
74900;SDS011;63461;51.416;6.758;2023-04-03T06:00:15;7.57;;;2.17;;
74900;SDS011;63461;51.416;6.758;2023-04-03T06:03:01;7.70;;;2.37;;
74900;SDS011;63461;51.416;6.758;2023-04-03T06:05:58;5.00;;;2.03;;
74900;SDS011;63461;51.416;6.758;2023-04-03T06:08:32;6.27;;;2.00;;
74900;SDS011;63461;51.416;6.758;2023-04-03T06:11:11;6.83;;;1.90;;
74900;SDS011;63461;51.416;6.758;2023-04-03T06:14:01;8.07;;;2.27;;
74900;SDS011;63461;51.416;6.758;2023-04-03T06:17:31;11.83;;;2.90;;
74900;SDS011;63461;51.416;6.758;2023-04-03T06:20:51;10.50;;;2.10;;
74900;SDS011;63461;51.416;6.758;2023-04-03T06:33:51;6.83;;;1.80;;
74900;SDS011;63461;51.416;6.758;2023-04-03T06:37:03;5.13;;;2.03;;
74900;SDS011;63461;51.416;6.758;2023-04-03T06:39:53;6.97;;;2.63;;
74900;SDS011;63461;51.416;6.758;2023-04-03T06:49:40;10.17;;;2.00;;
74900;SDS011;63461;51.416;6.758;2023-04-03T06:53:06;6.27;;;2.20;;
74900;SDS011;63461;51.416;6.758;2023-04-03T06:58:49;7.97;;;2.30;;
74900;SDS011;63461;51.416;6.758;2023-04-03T07:02:45;6.93;;;2.10;;
74900;SDS011;63461;51.416;6.758;2023-04-03T07:05:54;6.47;;;2.17;;
74900;SDS011;63461;51.416;6.758;2023-04-03T07:16:53;7.23;;;2.33;;
74900;SDS011;63461;51.416;6.758;2023-04-03T07:24:50;4.90;;;1.97;;
74900;SDS011;63461;51.416;6.758;2023-04-03T07:28:39;9.10;;;2.30;;
74900;SDS011;63461;51.416;6.758;2023-04-03T07:39:43;10.07;;;2.43;;
74900;SDS011;63461;51.416;6.758;2023-04-03T07:43:50;7.53;;;2.03;;
74900;SDS011;63461;51.416;6.758;2023-04-03T07:47:15;9.70;;;2.17;;
74900;SDS011;63461;51.416;6.758;2023-04-03T07:58:18;11.80;;;2.40;;
74900;SDS011;63461;51.416;6.758;2023-04-03T08:16:55;4.13;;;2.07;;
74900;SDS011;63461;51.416;6.758;2023-04-03T08:20:48;2.93;;;1.30;;
74900;SDS011;63461;51.416;6.758;2023-04-03T08:24:19;6.83;;;1.90;;
74900;SDS011;63461;51.416;6.758;2023-04-03T08:26:47;7.43;;;1.90;;
74900;SDS011;63461;51.416;6.758;2023-04-03T09:29:27;5.10;;;1.40;;
74900;SDS011;63461;51.416;6.758;2023-04-03T09:33:15;2.83;;;1.00;;
74900;SDS011;63461;51.416;6.758;2023-04-03T09:36:33;2.37;;;1.07;;
74900;SDS011;63461;51.416;6.758;2023-04-03T09:48:25;3.90;;;1.17;;
74900;SDS011;63461;51.416;6.758;2023-04-03T09:55:23;4.20;;;1.07;;
74900;SDS011;63461;51.416;6.758;2023-04-03T09:59:16;4.60;;;0.97;;
74900;SDS011;63461;51.416;6.758;2023-04-03T10:23:32;2.13;;;1.00;;
74900;SDS011;63461;51.416;6.758;2023-04-03T10:45:47;5.77;;;1.00;;
74900;SDS011;63461;51.416;6.758;2023-04-03T11:12:12;3.23;;;1.10;;
74900;SDS011;63461;51.416;6.758;2023-04-03T11:22:50;3.87;;;1.43;;
74900;SDS011;63461;51.416;6.758;2023-04-03T11:29:43;3.83;;;1.10;;
74900;SDS011;63461;51.416;6.758;2023-04-03T11:41:12;2.37;;;1.20;;
74900;SDS011;63461;51.416;6.758;2023-04-03T11:59:50;6.97;;;1.40;;
74900;SDS011;63461;51.416;6.758;2023-04-03T12:07:36;2.57;;;1.10;;
74900;SDS011;63461;51.416;6.758;2023-04-03T12:14:12;1.63;;;0.90;;
74900;SDS011;63461;51.416;6.758;2023-04-03T12:17:16;3.70;;;1.17;;
74900;SDS011;63461;51.416;6.758;2023-04-03T12:55:28;3.67;;;1.27;;
74900;SDS011;63461;51.416;6.758;2023-04-03T12:58:55;3.10;;;1.17;;
74900;SDS011;63461;51.416;6.758;2023-04-03T13:06:46;4.20;;;1.00;;
74900;SDS011;63461;51.416;6.758;2023-04-03T13:25:33;3.53;;;1.20;;
74900;SDS011;63461;51.416;6.758;2023-04-03T13:36:57;1.87;;;1.20;;
74900;SDS011;63461;51.416;6.758;2023-04-03T13:40:39;1.93;;;1.00;;
74900;SDS011;63461;51.416;6.758;2023-04-03T13:49:16;2.93;;;1.27;;
74900;SDS011;63461;51.416;6.758;2023-04-03T14:12:36;4.03;;;0.93;;
74900;SDS011;63461;51.416;6.758;2023-04-03T14:18:49;2.30;;;0.90;;
74900;SDS011;63461;51.416;6.758;2023-04-03T14:22:32;3.37;;;1.20;;
74900;SDS011;63461;51.416;6.758;2023-04-03T14:30:49;3.80;;;1.10;;
74900;SDS011;63461;51.416;6.758;2023-04-03T14:59:08;23.37;;;9.40;;
74900;SDS011;63461;51.416;6.758;2023-04-03T15:03:02;26.30;;;8.50;;
74900;SDS011;63461;51.416;6.758;2023-04-03T15:07:11;5.17;;;2.20;;
74900;SDS011;63461;51.416;6.758;2023-04-03T15:14:42;3.53;;;1.00;;
74900;SDS011;63461;51.416;6.758;2023-04-03T15:18:24;1.23;;;0.67;;
74900;SDS011;63461;51.416;6.758;2023-04-03T15:28:47;3.73;;;1.10;;
74900;SDS011;63461;51.416;6.758;2023-04-03T15:34:56;4.37;;;1.20;;
74900;SDS011;63461;51.416;6.758;2023-04-03T15:37:53;3.07;;;0.93;;
74900;SDS011;63461;51.416;6.758;2023-04-03T15:41:22;2.17;;;1.00;;
74900;SDS011;63461;51.416;6.758;2023-04-03T15:49:10;3.50;;;1.10;;
74900;SDS011;63461;51.416;6.758;2023-04-03T15:52:58;20.50;;;7.90;;
74900;SDS011;63461;51.416;6.758;2023-04-03T16:05:50;6.87;;;1.93;;
74900;SDS011;63461;51.416;6.758;2023-04-03T16:42:38;4.87;;;1.53;;
74900;SDS011;63461;51.416;6.758;2023-04-03T16:49:27;4.20;;;1.20;;
74900;SDS011;63461;51.416;6.758;2023-04-03T16:51:59;4.60;;;1.27;;
74900;SDS011;63461;51.416;6.758;2023-04-03T16:54:29;5.97;;;1.50;;
74900;SDS011;63461;51.416;6.758;2023-04-03T16:56:55;3.10;;;1.27;;
74900;SDS011;63461;51.416;6.758;2023-04-03T16:59:21;3.93;;;1.47;;
74900;SDS011;63461;51.416;6.758;2023-04-03T17:01:47;1.57;;;1.00;;
74900;SDS011;63461;51.416;6.758;2023-04-03T17:04:13;10.67;;;1.40;;
74900;SDS011;63461;51.416;6.758;2023-04-03T17:06:41;5.70;;;1.40;;
74900;SDS011;63461;51.416;6.758;2023-04-03T17:09:07;4.77;;;1.57;;
74900;SDS011;63461;51.416;6.758;2023-04-03T17:11:34;6.47;;;1.53;;
74900;SDS011;63461;51.416;6.758;2023-04-03T17:14:00;3.83;;;1.50;;
74900;SDS011;63461;51.416;6.758;2023-04-03T17:16:26;5.10;;;1.50;;
74900;SDS011;63461;51.416;6.758;2023-04-03T17:18:53;3.27;;;1.30;;
74900;SDS011;63461;51.416;6.758;2023-04-03T17:21:19;7.37;;;1.37;;
74900;SDS011;63461;51.416;6.758;2023-04-03T17:23:49;4.40;;;1.43;;
74900;SDS011;63461;51.416;6.758;2023-04-03T17:26:22;5.90;;;1.30;;
74900;SDS011;63461;51.416;6.758;2023-04-03T17:28:49;5.73;;;1.20;;
74900;SDS011;63461;51.416;6.758;2023-04-03T17:31:14;4.40;;;1.20;;
74900;SDS011;63461;51.416;6.758;2023-04-03T17:33:43;2.50;;;1.10;;
74900;SDS011;63461;51.416;6.758;2023-04-03T17:36:11;3.43;;;1.20;;
74900;SDS011;63461;51.416;6.758;2023-04-03T17:38:42;4.93;;;1.57;;
74900;SDS011;63461;51.416;6.758;2023-04-03T17:41:10;6.00;;;1.73;;
74900;SDS011;63461;51.416;6.758;2023-04-03T17:43:53;4.17;;;1.47;;
74900;SDS011;63461;51.416;6.758;2023-04-03T17:46:21;5.70;;;1.53;;
74900;SDS011;63461;51.416;6.758;2023-04-03T17:49:31;4.90;;;1.60;;
74900;SDS011;63461;51.416;6.758;2023-04-03T17:56:22;6.73;;;2.40;;
74900;SDS011;63461;51.416;6.758;2023-04-03T17:59:28;6.50;;;2.37;;
74900;SDS011;63461;51.416;6.758;2023-04-03T18:01:57;6.20;;;2.50;;
74900;SDS011;63461;51.416;6.758;2023-04-03T18:04:26;6.13;;;2.33;;
74900;SDS011;63461;51.416;6.758;2023-04-03T18:09:49;7.67;;;2.80;;
74900;SDS011;63461;51.416;6.758;2023-04-03T18:12:22;5.43;;;2.00;;
74900;SDS011;63461;51.416;6.758;2023-04-03T18:14:48;7.87;;;1.77;;
74900;SDS011;63461;51.416;6.758;2023-04-03T18:17:15;3.30;;;1.40;;
74900;SDS011;63461;51.416;6.758;2023-04-03T18:19:43;5.03;;;1.63;;
74900;SDS011;63461;51.416;6.758;2023-04-03T18:22:13;8.83;;;1.80;;
74900;SDS011;63461;51.416;6.758;2023-04-03T18:24:41;6.67;;;1.90;;
74900;SDS011;63461;51.416;6.758;2023-04-03T18:27:17;7.77;;;1.73;;
74900;SDS011;63461;51.416;6.758;2023-04-03T18:29:45;3.63;;;1.70;;
74900;SDS011;63461;51.416;6.758;2023-04-03T18:32:18;4.63;;;1.60;;
74900;SDS011;63461;51.416;6.758;2023-04-03T18:34:45;4.20;;;1.50;;
74900;SDS011;63461;51.416;6.758;2023-04-03T18:37:13;5.30;;;1.67;;
74900;SDS011;63461;51.416;6.758;2023-04-03T18:39:40;6.00;;;1.90;;
74900;SDS011;63461;51.416;6.758;2023-04-03T18:42:07;7.17;;;1.80;;
74900;SDS011;63461;51.416;6.758;2023-04-03T18:44:37;4.73;;;1.63;;
74900;SDS011;63461;51.416;6.758;2023-04-03T18:47:05;4.47;;;1.80;;
74900;SDS011;63461;51.416;6.758;2023-04-03T18:49:31;4.97;;;1.73;;
74900;SDS011;63461;51.416;6.758;2023-04-03T18:52:00;4.10;;;1.40;;
74900;SDS011;63461;51.416;6.758;2023-04-03T18:54:26;5.93;;;1.40;;
74900;SDS011;63461;51.416;6.758;2023-04-03T18:56:52;2.77;;;1.50;;
74900;SDS011;63461;51.416;6.758;2023-04-03T18:59:18;7.67;;;2.27;;
74900;SDS011;63461;51.416;6.758;2023-04-03T19:01:44;5.30;;;1.73;;
74900;SDS011;63461;51.416;6.758;2023-04-03T19:04:10;5.97;;;1.80;;
74900;SDS011;63461;51.416;6.758;2023-04-03T19:06:36;5.93;;;1.73;;
74900;SDS011;63461;51.416;6.758;2023-04-03T19:09:03;4.23;;;1.63;;
74900;SDS011;63461;51.416;6.758;2023-04-03T19:11:30;6.00;;;2.10;;
74900;SDS011;63461;51.416;6.758;2023-04-03T19:13:57;5.07;;;1.70;;
74900;SDS011;63461;51.416;6.758;2023-04-03T19:16:23;3.60;;;1.50;;
74900;SDS011;63461;51.416;6.758;2023-04-03T19:18:51;5.13;;;1.70;;
74900;SDS011;63461;51.416;6.758;2023-04-03T19:21:17;4.97;;;1.93;;
74900;SDS011;63461;51.416;6.758;2023-04-03T19:23:43;9.50;;;1.90;;
74900;SDS011;63461;51.416;6.758;2023-04-03T19:26:10;7.23;;;1.90;;
74900;SDS011;63461;51.416;6.758;2023-04-03T19:28:37;5.03;;;1.70;;
74900;SDS011;63461;51.416;6.758;2023-04-03T19:31:14;3.17;;;1.40;;
74900;SDS011;63461;51.416;6.758;2023-04-03T19:33:41;5.40;;;1.80;;
74900;SDS011;63461;51.416;6.758;2023-04-03T19:36:08;4.60;;;2.00;;
74900;SDS011;63461;51.416;6.758;2023-04-03T19:38:35;4.27;;;1.90;;
74900;SDS011;63461;51.416;6.758;2023-04-03T19:41:04;5.57;;;1.90;;
74900;SDS011;63461;51.416;6.758;2023-04-03T19:43:41;4.13;;;1.90;;
74900;SDS011;63461;51.416;6.758;2023-04-03T19:46:07;9.00;;;2.20;;
74900;SDS011;63461;51.416;6.758;2023-04-03T19:48:34;3.83;;;1.60;;
74900;SDS011;63461;51.416;6.758;2023-04-03T19:51:01;3.60;;;1.70;;
74900;SDS011;63461;51.416;6.758;2023-04-03T19:53:29;3.37;;;1.63;;
74900;SDS011;63461;51.416;6.758;2023-04-03T19:55:55;4.10;;;1.83;;
74900;SDS011;63461;51.416;6.758;2023-04-03T19:58:21;4.20;;;1.73;;
74900;SDS011;63461;51.416;6.758;2023-04-03T20:00:48;6.30;;;2.20;;
74900;SDS011;63461;51.416;6.758;2023-04-03T20:03:15;6.60;;;2.00;;
74900;SDS011;63461;51.416;6.758;2023-04-03T20:05:44;4.50;;;2.30;;
74900;SDS011;63461;51.416;6.758;2023-04-03T20:08:10;7.23;;;1.83;;
74900;SDS011;63461;51.416;6.758;2023-04-03T20:10:36;5.90;;;1.97;;
74900;SDS011;63461;51.416;6.758;2023-04-03T20:13:05;5.77;;;1.60;;
74900;SDS011;63461;51.416;6.758;2023-04-03T20:15:37;5.73;;;1.73;;
74900;SDS011;63461;51.416;6.758;2023-04-03T20:18:11;5.87;;;1.93;;
74900;SDS011;63461;51.416;6.758;2023-04-03T20:20:52;3.80;;;1.67;;
74900;SDS011;63461;51.416;6.758;2023-04-03T20:23:23;5.73;;;1.70;;
74900;SDS011;63461;51.416;6.758;2023-04-03T20:25:51;9.77;;;2.00;;
74900;SDS011;63461;51.416;6.758;2023-04-03T20:28:19;5.00;;;1.83;;
74900;SDS011;63461;51.416;6.758;2023-04-03T20:30:47;3.97;;;1.80;;
74900;SDS011;63461;51.416;6.758;2023-04-03T20:33:15;8.80;;;2.03;;
74900;SDS011;63461;51.416;6.758;2023-04-03T20:35:45;6.73;;;2.30;;
74900;SDS011;63461;51.416;6.758;2023-04-03T20:38:12;11.67;;;3.90;;
74900;SDS011;63461;51.416;6.758;2023-04-03T20:40:38;11.83;;;4.67;;
74900;SDS011;63461;51.416;6.758;2023-04-03T20:43:04;12.47;;;5.30;;
74900;SDS011;63461;51.416;6.758;2023-04-03T20:45:31;15.27;;;5.97;;
74900;SDS011;63461;51.416;6.758;2023-04-03T20:48:00;11.67;;;3.60;;
74900;SDS011;63461;51.416;6.758;2023-04-03T20:50:30;9.13;;;3.33;;
74900;SDS011;63461;51.416;6.758;2023-04-03T20:52:58;6.37;;;2.80;;
74900;SDS011;63461;51.416;6.758;2023-04-03T20:55:24;5.17;;;1.90;;
74900;SDS011;63461;51.416;6.758;2023-04-03T20:57:51;4.10;;;1.80;;
74900;SDS011;63461;51.416;6.758;2023-04-03T21:00:18;4.70;;;1.57;;
74900;SDS011;63461;51.416;6.758;2023-04-03T21:02:44;9.73;;;1.70;;
74900;SDS011;63461;51.416;6.758;2023-04-03T21:05:14;5.60;;;1.53;;
74900;SDS011;63461;51.416;6.758;2023-04-03T21:19:21;6.23;;;1.90;;
74900;SDS011;63461;51.416;6.758;2023-04-03T21:21:47;3.67;;;1.70;;
74900;SDS011;63461;51.416;6.758;2023-04-03T21:24:15;6.50;;;2.03;;
74900;SDS011;63461;51.416;6.758;2023-04-03T21:26:41;7.53;;;1.90;;
74900;SDS011;63461;51.416;6.758;2023-04-03T21:29:08;3.07;;;1.80;;
74900;SDS011;63461;51.416;6.758;2023-04-03T21:31:54;5.97;;;2.07;;
74900;SDS011;63461;51.416;6.758;2023-04-03T21:34:22;8.00;;;1.70;;
74900;SDS011;63461;51.416;6.758;2023-04-03T21:37:10;4.27;;;1.80;;
74900;SDS011;63461;51.416;6.758;2023-04-03T21:39:37;6.07;;;2.20;;
74900;SDS011;63461;51.416;6.758;2023-04-03T21:42:02;7.93;;;2.17;;
74900;SDS011;63461;51.416;6.758;2023-04-03T21:44:28;4.03;;;1.77;;
74900;SDS011;63461;51.416;6.758;2023-04-03T21:46:54;6.30;;;2.33;;
74900;SDS011;63461;51.416;6.758;2023-04-03T21:49:20;5.07;;;2.27;;
74900;SDS011;63461;51.416;6.758;2023-04-03T21:51:47;5.23;;;2.10;;
74900;SDS011;63461;51.416;6.758;2023-04-03T21:54:15;3.53;;;1.70;;
74900;SDS011;63461;51.416;6.758;2023-04-03T21:56:41;10.10;;;2.03;;
74900;SDS011;63461;51.416;6.758;2023-04-03T21:59:08;6.80;;;2.27;;
74900;SDS011;63461;51.416;6.758;2023-04-03T22:01:33;6.63;;;2.30;;
74900;SDS011;63461;51.416;6.758;2023-04-03T22:03:59;8.30;;;2.03;;
74900;SDS011;63461;51.416;6.758;2023-04-03T22:06:26;7.77;;;2.30;;
74900;SDS011;63461;51.416;6.758;2023-04-03T22:08:52;5.67;;;1.70;;
74900;SDS011;63461;51.416;6.758;2023-04-03T22:11:18;9.10;;;2.10;;
74900;SDS011;63461;51.416;6.758;2023-04-03T22:13:49;5.13;;;2.13;;
74900;SDS011;63461;51.416;6.758;2023-04-03T22:16:16;8.00;;;1.97;;
74900;SDS011;63461;51.416;6.758;2023-04-03T22:18:42;4.27;;;2.10;;
74900;SDS011;63461;51.416;6.758;2023-04-03T22:21:07;6.07;;;1.83;;
74900;SDS011;63461;51.416;6.758;2023-04-03T22:23:33;6.00;;;2.00;;
74900;SDS011;63461;51.416;6.758;2023-04-03T22:26:00;5.40;;;2.03;;
74900;SDS011;63461;51.416;6.758;2023-04-03T22:28:31;5.17;;;2.10;;
74900;SDS011;63461;51.416;6.758;2023-04-03T22:31:02;9.03;;;2.13;;
74900;SDS011;63461;51.416;6.758;2023-04-03T22:33:29;4.23;;;1.63;;
74900;SDS011;63461;51.416;6.758;2023-04-03T22:35:55;6.67;;;1.90;;
74900;SDS011;63461;51.416;6.758;2023-04-03T22:38:21;4.17;;;1.63;;
74900;SDS011;63461;51.416;6.758;2023-04-03T22:40:54;2.63;;;1.53;;
74900;SDS011;63461;51.416;6.758;2023-04-03T22:43:25;4.50;;;2.00;;
74900;SDS011;63461;51.416;6.758;2023-04-03T22:45:51;4.27;;;1.73;;
74900;SDS011;63461;51.416;6.758;2023-04-03T22:48:17;5.77;;;1.90;;
74900;SDS011;63461;51.416;6.758;2023-04-03T22:50:43;7.87;;;2.17;;
74900;SDS011;63461;51.416;6.758;2023-04-03T22:53:10;4.40;;;1.80;;
74900;SDS011;63461;51.416;6.758;2023-04-03T22:55:36;6.43;;;2.20;;
74900;SDS011;63461;51.416;6.758;2023-04-03T22:58:03;5.03;;;1.80;;
74900;SDS011;63461;51.416;6.758;2023-04-03T23:00:29;3.67;;;1.93;;
74900;SDS011;63461;51.416;6.758;2023-04-03T23:02:59;6.77;;;1.90;;
74900;SDS011;63461;51.416;6.758;2023-04-03T23:05:28;7.47;;;2.10;;
74900;SDS011;63461;51.416;6.758;2023-04-03T23:07:54;6.33;;;2.43;;
74900;SDS011;63461;51.416;6.758;2023-04-03T23:10:20;6.27;;;2.43;;
74900;SDS011;63461;51.416;6.758;2023-04-03T23:12:46;7.87;;;2.33;;
74900;SDS011;63461;51.416;6.758;2023-04-03T23:15:12;5.97;;;2.50;;
74900;SDS011;63461;51.416;6.758;2023-04-03T23:17:42;6.77;;;2.27;;
74900;SDS011;63461;51.416;6.758;2023-04-03T23:20:08;7.33;;;2.40;;
74900;SDS011;63461;51.416;6.758;2023-04-03T23:22:34;9.47;;;2.60;;
74900;SDS011;63461;51.416;6.758;2023-04-03T23:25:00;10.00;;;2.40;;
74900;SDS011;63461;51.416;6.758;2023-04-03T23:27:26;7.40;;;2.63;;
74900;SDS011;63461;51.416;6.758;2023-04-03T23:29:51;5.13;;;2.00;;
74900;SDS011;63461;51.416;6.758;2023-04-03T23:32:17;6.70;;;2.50;;
74900;SDS011;63461;51.416;6.758;2023-04-03T23:34:43;7.37;;;2.40;;
74900;SDS011;63461;51.416;6.758;2023-04-03T23:37:12;6.73;;;2.20;;
74900;SDS011;63461;51.416;6.758;2023-04-03T23:39:38;4.83;;;2.00;;
74900;SDS011;63461;51.416;6.758;2023-04-03T23:42:03;7.20;;;2.03;;
74900;SDS011;63461;51.416;6.758;2023-04-03T23:44:34;6.80;;;1.97;;
74900;SDS011;63461;51.416;6.758;2023-04-03T23:47:00;5.37;;;2.00;;
74900;SDS011;63461;51.416;6.758;2023-04-03T23:49:26;6.47;;;1.60;;
74900;SDS011;63461;51.416;6.758;2023-04-03T23:51:52;9.63;;;2.17;;
74900;SDS011;63461;51.416;6.758;2023-04-03T23:54:20;3.70;;;1.73;;
74900;SDS011;63461;51.416;6.758;2023-04-03T23:56:46;4.87;;;1.90;;
74900;SDS011;63461;51.416;6.758;2023-04-03T23:59:12;5.33;;;1.80;;
